メインページ
METAR-TAF:

METAR-TAF

空港 :

ブラジリア, ブラジリア連邦直轄区, ブラジル

プレジデント・ジュセリノ・クビシェッキ国際空港

緯度: 15-52S, 経度: 047-56W, 海抜: 1061m

現時点の気象観測

当レポートは28分前の17:00(UTC)に作成
東/南東の風 15kt、から南/南東の間で変化する
気温 26°C
湿度 37%
気圧 1021 hPa
視程10km以上
高度4000ftの雲はほとんどない

METAR: SBBR 231700Z 12015KT 090V150 9999 FEW040 26/10 Q1021

時間: 14:28 (17:28 UTC)

予報

当レポートは7時間28分前の10:00(UTC)に作成
予報は23日の 12時(UTC)から 24日の 12時(UTC)まで有効
東/南東の風 13kt
視程10km以上
1,500メートル以下は雲なし、積乱雲なし
確率 30%
23日の 17時(UTC)から 23日の 22時(UTC)まで
視程10km以上
高度4000ftの雲はほとんどない
23日の 19時(UTC)から 23日の 20時(UTC)まで徐々に
南/南東の風 8kt
23日の 23時(UTC)から 24日の 01時(UTC)まで徐々に
南西の風 7kt
24日の 06時(UTC)から 24日の 07時(UTC)まで徐々に
南/南東の風 8kt

TAF: SBBR 231000Z 2312/2412 11013KT CAVOK TX27/2317Z TN17/2408Z PROB30 2317/2322 9999 FEW040 BECMG 2319/2320 16008KT BECMG 2323/2401 23007KT BECMG 2406/2407 15008KT RMK PEJ

4,000以上の空港の気象観測と天気予報(METAR報とTAF報)

利用可能な観測所は地図上に黄色い丸と赤い丸で示す。

丸の上にカーソルを重ねると観測所名を参照できる。

次にクリックすると気象観測と天気予報を参照できる。

マップの切り替え:黒色「×」印の緑ボタンをクリックして拡大、「-」印の緑ボタンをクリックして縮小、緑色の三角印をクリックして隣りの地図に切り替え


METAR-TAF: